createdAt,value
2018-12-13T00:01:54.919Z,10.33
2018-12-13T00:04:24.421Z,10.60
2018-12-13T00:06:54.199Z,11.37
2018-12-13T00:09:23.899Z,10.93
2018-12-13T00:11:53.439Z,10.40
2018-12-13T00:14:22.906Z,11.47
2018-12-13T00:16:52.214Z,11.97
2018-12-13T00:19:21.604Z,11.43
2018-12-13T00:22:08.240Z,11.43
2018-12-13T00:24:40.885Z,12.00
2018-12-13T00:27:10.165Z,10.97
2018-12-13T00:29:39.605Z,11.70
2018-12-13T00:32:08.864Z,11.20
2018-12-13T00:34:38.218Z,11.73
2018-12-13T00:37:07.635Z,11.07
2018-12-13T00:39:37.023Z,11.90
2018-12-13T00:42:06.212Z,11.23
2018-12-13T00:44:35.404Z,10.33
2018-12-13T00:47:04.741Z,12.10
2018-12-13T00:49:34.033Z,12.47
2018-12-13T00:52:03.378Z,10.87
2018-12-13T00:54:32.578Z,11.63
2018-12-13T00:57:01.787Z,10.37
2018-12-13T00:59:32.783Z,11.33
2018-12-13T01:02:02.194Z,11.83
2018-12-13T01:04:31.388Z,10.90
2018-12-13T01:07:00.652Z,11.57
2018-12-13T01:09:29.799Z,12.63
2018-12-13T01:11:59.046Z,11.67
2018-12-13T01:14:29.024Z,12.43
2018-12-13T01:16:58.349Z,12.53
2018-12-13T01:19:27.832Z,12.30
2018-12-13T01:21:57.157Z,12.30
2018-12-13T01:24:26.383Z,11.33
2018-12-13T01:26:56.232Z,12.07
2018-12-13T01:29:25.399Z,11.47
2018-12-13T01:31:54.769Z,12.03
2018-12-13T01:34:24.814Z,12.53
2018-12-13T01:36:54.153Z,12.90
2018-12-13T01:39:23.465Z,11.23
2018-12-13T01:41:52.850Z,12.37
2018-12-13T01:44:22.073Z,11.93
2018-12-13T01:47:08.292Z,12.03
2018-12-13T01:49:40.276Z,11.73
2018-12-13T01:52:09.632Z,12.70
2018-12-13T01:54:39.038Z,11.67
2018-12-13T01:57:08.563Z,12.17
2018-12-13T01:59:37.942Z,12.30
2018-12-13T02:02:08.391Z,12.33
2018-12-13T02:04:37.613Z,13.23
2018-12-13T02:07:06.936Z,12.30
2018-12-13T02:09:36.208Z,12.03
2018-12-13T02:12:05.586Z,14.33
2018-12-13T02:14:34.849Z,12.83
2018-12-13T02:17:04.537Z,12.73
2018-12-13T02:19:33.824Z,12.97
2018-12-13T02:22:03.526Z,13.13
2018-12-13T02:24:33.447Z,13.43
2018-12-13T02:27:02.747Z,13.67
2018-12-13T02:29:32.051Z,13.63
2018-12-13T02:32:01.593Z,15.17
2018-12-13T02:34:30.862Z,14.10
2018-12-13T02:37:05.929Z,14.40
2018-12-13T02:39:32.014Z,14.23
2018-12-13T02:42:01.255Z,13.70
2018-12-13T02:44:30.678Z,14.00
2018-12-13T02:46:59.990Z,14.67
2018-12-13T02:49:29.289Z,14.70
2018-12-13T02:51:59.845Z,14.37
2018-12-13T02:54:29.123Z,14.70
2018-12-13T02:56:58.481Z,13.07
2018-12-13T02:59:29.444Z,14.00
2018-12-13T03:01:59.097Z,13.70
2018-12-13T03:04:28.286Z,13.67
2018-12-13T03:06:57.596Z,14.07
2018-12-13T03:09:27.822Z,13.43
2018-12-13T03:11:57.222Z,12.87
2018-12-13T03:14:26.843Z,13.13
2018-12-13T03:16:56.182Z,12.10
2018-12-13T03:19:25.627Z,13.07
2018-12-13T03:21:54.928Z,12.10
2018-12-13T03:24:24.300Z,12.53
2018-12-13T03:26:53.529Z,12.33
2018-12-13T03:29:23.505Z,12.97
2018-12-13T03:31:53.062Z,13.33
2018-12-13T03:34:22.428Z,13.33
2018-12-13T03:36:51.649Z,12.47
2018-12-13T03:39:21.193Z,13.87
2018-12-13T03:41:50.671Z,12.63
2018-12-13T03:44:20.105Z,13.03
2018-12-13T03:46:49.751Z,13.90
2018-12-13T03:49:19.077Z,13.33
2018-12-13T03:51:48.285Z,13.60
2018-12-13T03:54:17.956Z,13.53
2018-12-13T03:56:47.196Z,14.23
2018-12-13T03:59:16.687Z,14.83
2018-12-13T04:01:45.888Z,14.50
2018-12-13T04:04:15.134Z,13.60
2018-12-13T04:06:44.600Z,14.03
2018-12-13T04:09:13.995Z,13.83
2018-12-13T04:11:43.315Z,12.73
2018-12-13T04:14:12.621Z,13.53
2018-12-13T04:16:41.938Z,14.03
2018-12-13T04:19:11.987Z,13.10
2018-12-13T04:21:41.359Z,12.47
2018-12-13T04:24:10.687Z,13.20
2018-12-13T04:26:40.026Z,12.83
2018-12-13T04:29:12.093Z,14.37
2018-12-13T04:31:41.419Z,13.30
2018-12-13T04:34:10.836Z,12.67
2018-12-13T04:36:40.332Z,13.30
2018-12-13T04:39:10.128Z,11.83
2018-12-13T04:41:39.471Z,13.63
2018-12-13T04:44:08.901Z,12.63
2018-12-13T04:46:39.594Z,12.83
2018-12-13T04:49:09.687Z,12.73
2018-12-13T04:51:39.392Z,13.10
2018-12-13T04:54:08.739Z,12.43
2018-12-13T04:56:38.236Z,13.30
2018-12-13T04:59:08.536Z,14.40
2018-12-13T05:01:37.986Z,12.13
2018-12-13T05:04:08.048Z,13.00
2018-12-13T05:06:37.295Z,13.53
2018-12-13T05:09:08.299Z,13.30
2018-12-13T05:11:37.698Z,11.70
2018-12-13T05:14:08.156Z,12.53
2018-12-13T05:16:38.595Z,11.17
2018-12-13T05:19:09.000Z,11.90
2018-12-13T05:21:39.122Z,11.60
2018-12-13T05:24:09.717Z,11.87
2018-12-13T05:26:39.008Z,9.97
2018-12-13T05:29:08.567Z,11.27
2018-12-13T05:31:40.488Z,10.97
2018-12-13T05:34:09.911Z,10.67
2018-12-13T05:36:39.313Z,10.87
2018-12-13T05:39:09.078Z,11.07
2018-12-13T05:41:38.708Z,12.63
2018-12-13T05:44:08.414Z,10.47
2018-12-13T05:46:38.688Z,11.47
2018-12-13T05:49:08.035Z,10.73
2018-12-13T05:51:37.392Z,10.90
2018-12-13T05:54:09.513Z,10.80
2018-12-13T05:56:39.131Z,11.20
2018-12-13T05:59:08.445Z,10.60
2018-12-13T06:01:37.894Z,11.13
2018-12-13T06:04:07.281Z,12.17
2018-12-13T06:06:36.801Z,11.93
2018-12-13T06:09:08.127Z,10.80
2018-12-13T06:11:38.002Z,11.40
2018-12-13T06:14:07.636Z,10.53
2018-12-13T06:16:38.230Z,10.47
2018-12-13T06:19:07.761Z,10.77
2018-12-13T06:21:37.278Z,11.93
2018-12-13T06:24:06.658Z,11.43
2018-12-13T06:26:36.293Z,11.30
2018-12-13T06:29:05.963Z,13.33
2018-12-13T06:31:35.715Z,13.07
2018-12-13T06:34:07.283Z,13.23
2018-12-13T06:36:37.363Z,14.10
2018-12-13T06:39:08.571Z,14.43
2018-12-13T06:41:38.126Z,12.97
2018-12-13T06:44:07.661Z,12.97
2018-12-13T06:46:37.947Z,12.93
2018-12-13T06:49:07.555Z,12.27
2018-12-13T06:51:36.850Z,13.67
2018-12-13T06:54:06.905Z,13.80
2018-12-13T06:56:36.864Z,13.43
2018-12-13T06:59:07.755Z,12.97
2018-12-13T07:01:37.344Z,12.87
2018-12-13T07:04:08.438Z,11.43
2018-12-13T07:06:37.937Z,12.10
2018-12-13T07:09:09.312Z,12.20
2018-12-13T07:11:38.719Z,12.27
2018-12-13T07:14:08.357Z,10.87
2018-12-13T07:16:37.768Z,11.33
2018-12-13T07:19:07.078Z,11.13
2018-12-13T07:21:36.891Z,11.20
2018-12-13T07:24:06.359Z,11.33
2018-12-13T07:26:35.623Z,11.20
2018-12-13T07:29:05.181Z,10.63
2018-12-13T07:31:34.417Z,10.57
2018-12-13T07:34:04.011Z,11.13
2018-12-13T07:36:33.471Z,10.57
2018-12-13T07:39:03.122Z,10.50
2018-12-13T07:41:32.486Z,9.57
2018-12-13T07:44:01.952Z,9.13
2018-12-13T07:46:31.494Z,9.13
2018-12-13T07:49:00.865Z,10.90
2018-12-13T07:51:30.060Z,8.43
2018-12-13T07:53:59.316Z,9.13
2018-12-13T07:56:29.306Z,10.33
2018-12-13T07:58:58.801Z,9.30
2018-12-13T08:01:28.121Z,9.27
2018-12-13T08:04:04.360Z,8.93
2018-12-13T08:06:33.540Z,7.77
2018-12-13T08:09:03.149Z,8.50
2018-12-13T08:11:32.579Z,7.83
2018-12-13T08:14:03.649Z,7.77
2018-12-13T08:16:33.016Z,10.20
2018-12-13T08:19:04.194Z,8.00
2018-12-13T08:21:33.446Z,7.73
2018-12-13T08:24:03.262Z,8.07
2018-12-13T08:26:32.722Z,9.67
2018-12-13T08:29:02.507Z,8.50
2018-12-13T08:31:31.719Z,7.80
2018-12-13T08:34:01.293Z,7.80
2018-12-13T08:36:31.470Z,7.63
2018-12-13T08:39:00.749Z,8.60
2018-12-13T08:41:30.152Z,8.20
2018-12-13T08:43:59.826Z,8.27
2018-12-13T08:46:29.336Z,8.73
2018-12-13T08:48:59.983Z,8.50
2018-12-13T08:51:31.087Z,8.10
2018-12-13T08:54:01.833Z,8.13
2018-12-13T08:56:31.209Z,8.00
2018-12-13T08:59:00.561Z,7.60
2018-12-13T09:01:30.067Z,7.03
2018-12-13T09:03:59.375Z,7.97
2018-12-13T09:06:28.858Z,7.83
2018-12-13T09:08:58.204Z,7.33
2018-12-13T09:11:27.749Z,8.13
2018-12-13T09:13:57.361Z,7.93
2018-12-13T09:16:31.507Z,9.00
2018-12-13T09:18:59.137Z,8.57
2018-12-13T09:21:28.466Z,8.83
2018-12-13T09:23:57.833Z,7.90
2018-12-13T09:26:27.581Z,8.23
2018-12-13T09:28:56.982Z,9.00
2018-12-13T09:31:26.381Z,8.80
2018-12-13T09:33:56.097Z,8.23
2018-12-13T09:36:25.754Z,7.60
2018-12-13T09:38:55.020Z,7.87
2018-12-13T09:41:24.400Z,7.10
2018-12-13T09:43:54.072Z,6.67
2018-12-13T09:46:23.457Z,7.13
2018-12-13T09:48:53.056Z,7.93
2018-12-13T09:51:22.937Z,7.30
2018-12-13T09:53:52.253Z,8.40
2018-12-13T09:56:22.350Z,8.57
2018-12-13T09:58:51.751Z,7.30
2018-12-13T10:01:21.226Z,7.67
2018-12-13T10:03:50.807Z,7.30
2018-12-13T10:06:21.393Z,7.47
2018-12-13T10:08:50.900Z,7.70
2018-12-13T10:11:20.301Z,7.23
2018-12-13T10:13:49.874Z,7.50
2018-12-13T10:16:19.410Z,7.33
2018-12-13T10:18:48.683Z,7.30
2018-12-13T10:21:18.462Z,7.80
2018-12-13T10:23:49.586Z,7.77
2018-12-13T10:26:19.201Z,7.00
2018-12-13T10:28:49.260Z,6.83
2018-12-13T10:31:20.333Z,7.43
2018-12-13T10:33:49.953Z,7.30
2018-12-13T10:36:19.518Z,7.97
2018-12-13T10:38:53.050Z,7.33
2018-12-13T10:41:20.487Z,7.00
2018-12-13T10:43:50.094Z,7.20
2018-12-13T10:46:19.507Z,7.20
2018-12-13T10:48:49.038Z,6.97
2018-12-13T10:51:18.322Z,7.47
2018-12-13T10:53:48.085Z,7.97
2018-12-13T10:56:18.781Z,7.97
2018-12-13T10:58:49.201Z,7.07
2018-12-13T11:01:24.491Z,7.17
2018-12-13T11:03:54.415Z,8.30
2018-12-13T11:06:23.675Z,6.17
2018-12-13T11:08:59.225Z,7.70
2018-12-13T11:11:25.637Z,7.60
2018-12-13T11:13:56.610Z,6.77
2018-12-13T11:16:26.267Z,6.50
2018-12-13T11:18:55.931Z,6.77
2018-12-13T11:21:25.298Z,6.30
2018-12-13T11:23:54.711Z,6.77
2018-12-13T11:26:24.037Z,6.20
2018-12-13T11:30:02.888Z,6.67
2018-12-13T11:32:32.393Z,6.37
2018-12-13T11:35:02.563Z,6.17
2018-12-13T11:37:34.367Z,6.70
2018-12-13T11:40:06.017Z,9.40
2018-12-13T11:42:35.431Z,6.67
2018-12-13T11:45:05.288Z,6.83
2018-12-13T11:47:34.832Z,7.40
2018-12-13T11:50:05.044Z,7.13
2018-12-13T11:52:35.242Z,6.83
2018-12-13T11:55:18.966Z,6.97
2018-12-13T11:57:48.321Z,7.07
2018-12-13T12:00:19.709Z,7.63
2018-12-13T12:02:52.892Z,7.90
2018-12-13T12:05:22.696Z,6.80
2018-12-13T12:07:52.012Z,7.53
2018-12-13T12:10:22.042Z,7.67
2018-12-13T12:12:51.419Z,7.30
2018-12-13T12:15:20.795Z,7.47
2018-12-13T12:17:50.095Z,7.17
2018-12-13T12:20:19.466Z,7.00
2018-12-13T12:22:48.872Z,7.40
2018-12-13T12:25:18.146Z,8.00
2018-12-13T12:27:47.551Z,8.83
2018-12-13T12:30:16.862Z,8.43
2018-12-13T12:32:46.255Z,8.40
2018-12-13T12:35:15.682Z,7.90
2018-12-13T12:37:45.962Z,7.90
2018-12-13T12:40:15.354Z,9.00
2018-12-13T12:42:44.910Z,10.07
2018-12-13T12:45:14.930Z,8.20
2018-12-13T12:47:44.447Z,9.17
2018-12-13T12:50:13.892Z,8.67
2018-12-13T12:52:43.301Z,7.63
2018-12-13T12:55:12.758Z,7.40
2018-12-13T12:57:42.061Z,7.47
2018-12-13T13:00:13.117Z,8.40
2018-12-13T13:02:42.865Z,8.23
2018-12-13T13:05:12.310Z,8.63
2018-12-13T13:07:41.842Z,7.73
2018-12-13T13:10:11.060Z,7.83
2018-12-13T13:12:40.818Z,8.37
2018-12-13T13:15:10.530Z,8.57
2018-12-13T13:17:40.011Z,8.03
2018-12-13T13:20:09.485Z,8.60
2018-12-13T13:22:39.002Z,8.70
2018-12-13T13:25:08.666Z,9.40
2018-12-13T13:27:38.328Z,8.80
2018-12-13T13:30:07.878Z,8.50
2018-12-13T13:32:37.639Z,8.47
2018-12-13T13:35:07.444Z,9.67
2018-12-13T13:37:37.724Z,8.00
2018-12-13T13:40:07.045Z,8.70
2018-12-13T13:42:36.502Z,8.70
2018-12-13T13:45:06.545Z,8.90
2018-12-13T13:47:36.050Z,9.10
2018-12-13T13:50:06.414Z,9.87
2018-12-13T13:52:35.767Z,9.50
2018-12-13T13:55:05.591Z,9.50
2018-12-13T13:57:34.916Z,9.17
2018-12-13T14:00:05.399Z,8.77
2018-12-13T14:02:35.345Z,8.50
2018-12-13T14:05:04.972Z,8.03
2018-12-13T14:07:34.173Z,8.60
2018-12-13T14:10:04.394Z,8.50
2018-12-13T14:12:33.873Z,8.50
2018-12-13T14:15:03.201Z,7.77
2018-12-13T14:17:32.580Z,9.47
2018-12-13T14:20:01.993Z,9.13
2018-12-13T14:22:31.524Z,8.83
2018-12-13T14:25:00.952Z,9.17
2018-12-13T14:27:30.694Z,8.93
2018-12-13T14:30:00.144Z,9.23
2018-12-13T14:32:29.628Z,9.43
2018-12-13T14:34:59.234Z,8.77
2018-12-13T14:37:29.004Z,8.60
2018-12-13T14:39:58.509Z,8.07
2018-12-13T14:42:30.458Z,9.07
2018-12-13T14:44:59.837Z,8.97
2018-12-13T14:47:29.283Z,8.50
2018-12-13T14:49:59.002Z,7.93
2018-12-13T14:52:28.282Z,9.40
2018-12-13T14:54:58.377Z,10.47
2018-12-13T14:57:28.437Z,10.17
2018-12-13T14:59:57.640Z,11.50
2018-12-13T15:02:27.064Z,10.50
2018-12-13T15:04:56.618Z,10.40
2018-12-13T15:07:25.978Z,10.13
2018-12-13T15:09:55.339Z,9.40
2018-12-13T15:12:25.264Z,11.07
2018-12-13T15:14:54.758Z,10.77
2018-12-13T15:17:24.002Z,10.00
2018-12-13T15:19:53.434Z,10.07
2018-12-13T15:22:22.823Z,10.63
2018-12-13T15:24:52.209Z,9.97
2018-12-13T15:27:21.520Z,9.23
2018-12-13T15:29:51.748Z,10.20
2018-12-13T15:32:20.964Z,10.13
2018-12-13T15:34:50.119Z,10.13
2018-12-13T15:37:19.523Z,9.10
2018-12-13T15:39:48.719Z,10.63
2018-12-13T15:42:17.954Z,10.13
2018-12-13T15:44:47.208Z,10.40
2018-12-13T15:47:16.658Z,10.33
2018-12-13T15:49:46.953Z,9.30
2018-12-13T15:52:16.358Z,8.93
2018-12-13T15:54:52.584Z,9.30
2018-12-13T15:57:22.384Z,10.17
2018-12-13T15:59:52.444Z,9.43
2018-12-13T16:02:22.153Z,10.57
2018-12-13T16:04:51.358Z,9.83
2018-12-13T16:07:21.618Z,9.53
2018-12-13T16:09:51.403Z,9.53
2018-12-13T16:12:20.983Z,10.03
2018-12-13T16:14:50.184Z,9.57
2018-12-13T16:17:20.293Z,10.50
2018-12-13T16:19:50.544Z,9.57
2018-12-13T16:22:20.129Z,10.20
2018-12-13T16:24:49.608Z,10.03
2018-12-13T16:27:19.628Z,10.77
2018-12-13T16:29:49.293Z,9.93
2018-12-13T16:32:19.750Z,9.50
2018-12-13T16:34:49.099Z,9.83
2018-12-13T16:37:18.451Z,10.20
2018-12-13T16:39:47.786Z,11.80
2018-12-13T16:42:17.090Z,10.63
2018-12-13T16:44:46.291Z,10.27
2018-12-13T16:47:16.002Z,10.40
2018-12-13T16:49:45.990Z,10.57
2018-12-13T16:52:15.318Z,11.00
2018-12-13T16:54:44.510Z,10.70
2018-12-13T16:57:14.408Z,10.93
2018-12-13T16:59:43.723Z,10.23
2018-12-13T17:02:12.943Z,10.60
2018-12-13T17:04:42.945Z,10.33
2018-12-13T17:07:12.396Z,11.10
2018-12-13T17:09:41.585Z,10.73
2018-12-13T17:12:10.956Z,12.07
2018-12-13T17:14:40.304Z,10.63
2018-12-13T17:17:09.584Z,11.30
2018-12-13T17:19:38.960Z,10.63
2018-12-13T17:22:09.654Z,11.10
2018-12-13T17:24:39.433Z,10.03
2018-12-13T17:27:08.791Z,10.37
2018-12-13T17:29:38.171Z,10.93
2018-12-13T17:32:08.500Z,10.57
2018-12-13T17:34:37.761Z,11.57
2018-12-13T17:37:07.063Z,11.73
2018-12-13T17:39:36.625Z,12.03
2018-12-13T17:42:05.985Z,12.20
2018-12-13T17:44:35.306Z,12.97
2018-12-13T17:47:05.461Z,11.07
2018-12-13T17:49:35.284Z,13.03
2018-12-13T17:52:04.607Z,12.83
2018-12-13T17:54:34.385Z,11.77
2018-12-13T17:57:03.731Z,12.50
2018-12-13T17:59:33.534Z,11.33
2018-12-13T18:02:03.346Z,12.57
2018-12-13T18:04:33.180Z,11.17
2018-12-13T18:07:02.371Z,10.90
2018-12-13T18:09:32.356Z,11.17
2018-12-13T18:12:01.722Z,12.30
2018-12-13T18:14:30.951Z,10.33
2018-12-13T18:17:00.124Z,12.07
2018-12-13T18:19:29.297Z,12.00
2018-12-13T18:21:59.671Z,11.07
2018-12-13T18:24:29.039Z,10.93
2018-12-13T18:26:58.280Z,11.37
2018-12-13T18:29:28.298Z,11.03
2018-12-13T18:31:57.632Z,12.63
2018-12-13T18:34:26.835Z,12.10
2018-12-13T18:36:56.601Z,11.17
2018-12-13T18:39:26.564Z,11.87
2018-12-13T18:41:56.677Z,11.50
2018-12-13T18:44:26.083Z,12.00
2018-12-13T18:46:55.377Z,12.03
2018-12-13T18:49:25.739Z,11.83
2018-12-13T18:51:55.106Z,11.67
2018-12-13T18:54:24.537Z,12.60
2018-12-13T18:56:54.140Z,10.97
2018-12-13T18:59:24.036Z,11.60
2018-12-13T19:01:53.566Z,13.50
2018-12-13T19:04:24.864Z,12.17
2018-12-13T19:06:54.459Z,11.97
2018-12-13T19:09:23.704Z,13.73
2018-12-13T19:11:52.958Z,12.40
2018-12-13T19:14:23.419Z,14.30
2018-12-13T19:16:54.987Z,11.03
2018-12-13T19:19:26.497Z,11.97
2018-12-13T19:21:57.311Z,10.83
2018-12-13T19:26:59.786Z,12.40
2018-12-13T19:29:30.255Z,11.73
2018-12-13T19:32:01.245Z,12.63
2018-12-13T19:34:31.693Z,12.57
2018-12-13T19:37:02.304Z,11.30
2018-12-13T19:39:32.938Z,12.37
2018-12-13T19:42:02.560Z,11.83
2018-12-13T19:44:32.140Z,11.30
2018-12-13T19:47:01.439Z,12.03
2018-12-13T19:49:30.841Z,11.80
2018-12-13T19:52:00.773Z,11.70
2018-12-13T19:54:31.721Z,12.67
2018-12-13T19:57:00.968Z,12.47
2018-12-13T19:59:30.482Z,13.20
2018-12-13T20:02:00.595Z,12.40
2018-12-13T20:04:29.891Z,12.33
2018-12-13T20:07:00.366Z,11.77
2018-12-13T20:09:29.594Z,11.77
2018-12-13T20:11:59.628Z,11.10
2018-12-13T20:14:29.761Z,11.93
2018-12-13T20:16:59.262Z,11.03
2018-12-13T20:19:28.561Z,11.00
2018-12-13T20:21:58.002Z,11.47
2018-12-13T20:24:27.236Z,10.93
2018-12-13T20:26:56.599Z,10.13
2018-12-13T20:29:26.453Z,11.17
2018-12-13T20:31:56.060Z,11.13
2018-12-13T20:34:26.073Z,10.07
2018-12-13T20:36:55.838Z,12.37
2018-12-13T20:39:25.029Z,12.33
2018-12-13T20:41:55.232Z,11.60
2018-12-13T20:44:24.558Z,11.90
2018-12-13T20:46:53.735Z,11.60
2018-12-13T20:49:23.007Z,11.90
2018-12-13T20:51:52.309Z,11.47
2018-12-13T20:54:21.535Z,11.83
2018-12-13T20:56:51.000Z,12.37
2018-12-13T20:59:20.906Z,13.10
2018-12-13T21:01:50.142Z,12.20
2018-12-13T21:04:19.309Z,11.57
2018-12-13T21:06:52.640Z,12.10
2018-12-13T21:09:22.086Z,12.23
2018-12-13T21:11:51.454Z,11.77
2018-12-13T21:14:20.809Z,12.33
2018-12-13T21:16:50.304Z,11.60
2018-12-13T21:19:19.546Z,11.47
2018-12-13T21:21:48.824Z,11.67
2018-12-13T21:24:18.766Z,12.53
2018-12-13T21:26:48.801Z,12.60
2018-12-13T21:29:19.320Z,12.90
2018-12-13T21:31:49.615Z,14.17
2018-12-13T21:34:18.992Z,12.77
2018-12-13T21:36:48.700Z,12.17
2018-12-13T21:39:18.418Z,11.80
2018-12-13T21:41:47.649Z,11.77
2018-12-13T21:44:16.913Z,11.53
2018-12-13T21:46:46.157Z,11.27
2018-12-13T21:49:15.915Z,12.20
2018-12-13T21:51:45.218Z,11.10
2018-12-13T21:54:17.020Z,12.53
2018-12-13T21:56:46.751Z,11.73
2018-12-13T21:59:16.049Z,11.40
2018-12-13T22:01:45.542Z,11.77
2018-12-13T22:04:15.432Z,12.23
2018-12-13T22:06:44.799Z,11.97
2018-12-13T22:09:14.058Z,11.93
2018-12-13T22:11:45.020Z,11.30
2018-12-13T22:14:14.391Z,12.00
2018-12-13T22:16:43.797Z,11.93
2018-12-13T22:19:13.122Z,11.63
2018-12-13T22:21:42.909Z,11.77
2018-12-13T22:24:12.573Z,11.93
2018-12-13T22:26:42.066Z,11.70
2018-12-13T22:29:11.338Z,10.90
2018-12-13T22:31:40.749Z,20.33
2018-12-13T22:34:10.076Z,11.43
2018-12-13T22:36:39.960Z,12.33
2018-12-13T22:39:09.248Z,11.70
2018-12-13T22:41:40.095Z,11.40
2018-12-13T22:44:15.536Z,12.27
2018-12-13T22:46:48.178Z,11.80
2018-12-13T22:49:17.527Z,12.63
2018-12-13T22:51:46.765Z,12.87
2018-12-13T22:54:16.006Z,12.13
2018-12-13T22:56:45.443Z,11.87
2018-12-13T22:59:14.747Z,12.53
2018-12-13T23:01:44.177Z,12.40
2018-12-13T23:04:13.434Z,11.80
2018-12-13T23:06:42.696Z,11.60
2018-12-13T23:09:11.982Z,12.07
2018-12-13T23:11:41.264Z,12.30
2018-12-13T23:14:10.869Z,13.30
2018-12-13T23:16:40.709Z,12.43
2018-12-13T23:19:09.939Z,12.10
2018-12-13T23:21:39.208Z,12.23
2018-12-13T23:24:08.448Z,12.93
2018-12-13T23:26:37.661Z,12.70
2018-12-13T23:29:06.988Z,12.77
2018-12-13T23:31:36.103Z,12.03
2018-12-13T23:34:05.429Z,13.63
2018-12-13T23:36:34.721Z,13.30
2018-12-13T23:39:04.884Z,13.13
2018-12-13T23:41:39.205Z,13.17
2018-12-13T23:44:05.298Z,13.20
2018-12-13T23:46:34.455Z,13.50
2018-12-13T23:49:03.777Z,12.70
2018-12-13T23:51:32.920Z,13.23
2018-12-13T23:54:02.432Z,13.77
2018-12-13T23:56:31.695Z,12.53
2018-12-13T23:59:01.244Z,12.47
